createdAt,value
2022-09-22T00:01:33.556Z,0.35
2022-09-22T00:05:35.766Z,0.63
2022-09-22T00:09:37.775Z,0.45
2022-09-22T00:13:41.283Z,0.30
2022-09-22T00:17:44.081Z,1.98
2022-09-22T00:21:47.868Z,0.55
2022-09-22T00:25:49.898Z,0.70
2022-09-22T00:29:52.186Z,0.47
2022-09-22T00:33:55.494Z,0.40
2022-09-22T00:37:57.765Z,0.63
2022-09-22T00:42:00.137Z,0.30
2022-09-22T00:46:09.788Z,0.80
2022-09-22T00:50:22.238Z,1.85
2022-09-22T00:54:24.579Z,0.93
2022-09-22T00:58:32.761Z,0.50
2022-09-22T01:02:35.252Z,0.77
2022-09-22T01:06:40.131Z,0.88
2022-09-22T01:10:42.257Z,0.40
2022-09-22T01:14:52.773Z,0.93
2022-09-22T01:19:40.091Z,0.50
2022-09-22T01:23:53.277Z,1.00
2022-09-22T01:28:15.368Z,0.73
2022-09-22T01:32:41.544Z,0.63
2022-09-22T01:36:49.835Z,1.75
2022-09-22T01:40:59.175Z,0.32
2022-09-22T01:45:12.124Z,0.50
2022-09-22T01:49:15.693Z,0.50
2022-09-22T01:53:22.670Z,1.85
2022-09-22T01:58:09.770Z,1.17
2022-09-22T02:02:22.713Z,1.40
2022-09-22T02:06:24.949Z,0.40
2022-09-22T02:10:35.028Z,1.50
2022-09-22T02:14:39.677Z,0.75
2022-09-22T02:19:16.381Z,1.55
2022-09-22T02:23:18.461Z,0.63
2022-09-22T02:27:27.125Z,1.48
2022-09-22T02:31:34.583Z,0.45
2022-09-22T02:35:39.831Z,0.57
2022-09-22T02:40:21.287Z,1.13
2022-09-22T02:44:54.707Z,0.88
2022-09-22T02:49:01.743Z,1.05
2022-09-22T02:53:13.367Z,0.30
2022-09-22T02:57:15.399Z,0.68
2022-09-22T03:01:17.542Z,0.70
2022-09-22T03:05:20.105Z,0.82
2022-09-22T03:09:22.570Z,0.57
2022-09-22T03:13:24.564Z,0.63
2022-09-22T03:17:27.047Z,0.32
2022-09-22T03:21:29.135Z,0.90
2022-09-22T03:25:31.109Z,2.50
2022-09-22T03:29:33.482Z,0.88
2022-09-22T03:33:35.558Z,0.40
2022-09-22T03:37:37.861Z,1.02
2022-09-22T03:41:41.075Z,0.77
2022-09-22T03:45:44.165Z,0.68
2022-09-22T03:49:46.879Z,1.63
2022-09-22T03:53:48.932Z,0.55
2022-09-22T03:57:51.087Z,0.80
2022-09-22T04:01:57.451Z,0.93
2022-09-22T04:06:00.743Z,1.45
2022-09-22T04:10:03.906Z,0.82
2022-09-22T04:14:06.013Z,2.30
2022-09-22T04:18:08.395Z,3.30
2022-09-22T04:22:10.395Z,0.63
2022-09-22T04:26:12.635Z,0.95
2022-09-22T04:30:15.038Z,2.90
2022-09-22T04:34:18.174Z,0.85
2022-09-22T04:38:20.781Z,0.53
2022-09-22T04:42:23.006Z,2.45
2022-09-22T04:46:26.793Z,1.42
2022-09-22T04:50:28.860Z,1.88
2022-09-22T04:54:31.305Z,3.33
2022-09-22T04:58:33.662Z,1.52
2022-09-22T05:02:36.070Z,2.25
2022-09-22T05:06:38.484Z,4.32
2022-09-22T05:10:40.525Z,6.80
2022-09-22T05:19:35.020Z,0.90
2022-09-22T05:23:37.165Z,1.80
2022-09-22T05:27:54.070Z,4.07
2022-09-22T05:31:56.539Z,3.70
2022-09-22T05:35:58.825Z,9.50
2022-09-22T05:40:00.991Z,1.85
2022-09-22T05:44:03.258Z,3.33
2022-09-22T05:48:05.629Z,6.45
2022-09-22T05:52:07.856Z,7.07
2022-09-22T05:56:10.242Z,6.53
2022-09-22T06:00:12.866Z,6.60
2022-09-22T06:04:15.145Z,9.18
2022-09-22T06:08:17.878Z,19.58
2022-09-22T06:12:20.151Z,18.10
2022-09-22T06:16:23.206Z,16.27
2022-09-22T06:20:25.844Z,14.52
2022-09-22T06:24:28.422Z,5.05
2022-09-22T06:28:30.493Z,10.55
2022-09-22T06:32:33.748Z,6.75
2022-09-22T06:36:35.781Z,12.07
2022-09-22T06:40:37.829Z,2.70
2022-09-22T06:44:41.268Z,5.30
2022-09-22T06:48:43.466Z,8.30
2022-09-22T06:52:45.549Z,1.38
2022-09-22T06:56:48.001Z,2.15
2022-09-22T07:00:51.227Z,1.40
2022-09-22T07:04:54.152Z,3.08
2022-09-22T07:08:56.290Z,10.52
2022-09-22T07:13:01.500Z,7.13
2022-09-22T07:17:03.940Z,2.58
2022-09-22T07:21:09.027Z,0.82
2022-09-22T07:25:11.198Z,2.75
2022-09-22T07:29:13.871Z,1.45
2022-09-22T07:33:18.945Z,0.82
2022-09-22T07:37:21.062Z,0.55
2022-09-22T07:41:28.976Z,0.70
2022-09-22T07:45:31.539Z,1.52
2022-09-22T07:49:33.814Z,0.80
2022-09-22T07:53:37.421Z,2.40
2022-09-22T07:57:39.449Z,0.70
2022-09-22T08:01:47.678Z,0.95
2022-09-22T08:05:52.521Z,3.75
2022-09-22T08:09:54.709Z,0.70
2022-09-22T08:13:58.865Z,0.65
2022-09-22T08:18:04.027Z,1.27
2022-09-22T08:22:06.301Z,1.85
2022-09-22T08:26:08.883Z,3.10
2022-09-22T08:30:12.102Z,1.17
2022-09-22T08:34:16.451Z,1.58
2022-09-22T08:38:18.797Z,0.75
2022-09-22T08:42:23.328Z,0.75
2022-09-22T08:46:38.399Z,0.95
2022-09-22T08:51:06.282Z,0.93
2022-09-22T08:55:22.076Z,0.68
2022-09-22T08:59:35.960Z,0.95
2022-09-22T09:03:56.164Z,0.93
2022-09-22T09:08:11.301Z,0.90
2022-09-22T09:12:19.438Z,1.00
2022-09-22T09:16:46.950Z,4.15
2022-09-22T09:20:52.407Z,0.40
2022-09-22T09:29:34.197Z,0.88
2022-09-22T09:34:06.186Z,2.15
2022-09-22T09:38:12.359Z,2.75
2022-09-22T09:42:22.292Z,2.05
2022-09-22T09:47:02.261Z,2.95
2022-09-22T09:51:05.968Z,0.32
2022-09-22T09:55:27.650Z,0.40
2022-09-22T09:59:49.829Z,4.00
2022-09-22T10:03:54.874Z,0.40
2022-09-22T10:08:00.396Z,2.53
2022-09-22T10:12:03.730Z,0.40
2022-09-22T10:16:20.055Z,0.60
2022-09-22T10:20:31.656Z,0.63
2022-09-22T10:24:35.876Z,0.50
2022-09-22T10:28:37.870Z,0.80
2022-09-22T10:32:41.410Z,0.98
2022-09-22T10:36:47.548Z,0.55
2022-09-22T10:40:56.972Z,0.45
2022-09-22T10:45:05.276Z,0.98
2022-09-22T10:49:26.367Z,1.40
2022-09-22T10:53:32.085Z,0.60
2022-09-22T10:57:41.447Z,1.38
2022-09-22T11:02:26.807Z,0.85
2022-09-22T11:07:07.074Z,2.35
2022-09-22T11:11:40.788Z,0.70
2022-09-22T11:16:13.372Z,1.75
2022-09-22T11:20:43.684Z,0.40
2022-09-22T11:25:07.099Z,0.50
2022-09-22T11:29:27.933Z,3.22
2022-09-22T11:33:39.336Z,0.65
2022-09-22T11:38:03.285Z,0.85
2022-09-22T11:42:36.511Z,1.95
2022-09-22T11:47:03.638Z,0.73
2022-09-22T11:51:44.679Z,2.47
2022-09-22T11:56:21.893Z,0.90
2022-09-22T12:00:24.516Z,0.85
2022-09-22T12:04:37.948Z,1.05
2022-09-22T12:09:05.946Z,0.40
2022-09-22T12:13:20.625Z,0.40
2022-09-22T12:17:33.218Z,0.60
2022-09-22T12:22:12.694Z,1.20
2022-09-22T12:26:33.638Z,0.90
2022-09-22T12:30:35.824Z,0.50
2022-09-22T12:34:40.073Z,0.70
2022-09-22T12:38:43.880Z,2.05
2022-09-22T12:42:51.143Z,0.30
2022-09-22T12:46:59.398Z,2.20
2022-09-22T12:51:24.674Z,0.55
2022-09-22T12:55:29.529Z,0.68
2022-09-22T12:59:57.104Z,0.60
2022-09-22T13:04:15.097Z,0.70
2022-09-22T13:08:38.600Z,0.40
2022-09-22T13:12:40.826Z,1.10
2022-09-22T13:16:44.936Z,0.30
2022-09-22T13:20:47.522Z,2.65
2022-09-22T13:24:49.532Z,1.08
2022-09-22T13:29:19.708Z,0.50
2022-09-22T13:33:25.647Z,0.50
2022-09-22T13:37:28.100Z,1.85
2022-09-22T13:41:44.158Z,1.45
2022-09-22T13:45:46.481Z,0.98
2022-09-22T13:49:55.078Z,0.50
2022-09-22T13:53:57.986Z,1.05
2022-09-22T13:58:03.254Z,1.17
2022-09-22T14:02:09.052Z,0.40
2022-09-22T14:06:20.517Z,4.32
2022-09-22T14:10:23.386Z,0.30
2022-09-22T14:14:27.586Z,2.95
2022-09-22T14:18:30.474Z,1.63
2022-09-22T14:22:40.345Z,2.33
2022-09-22T14:26:51.289Z,1.98
2022-09-22T14:30:53.808Z,0.75
2022-09-22T14:34:58.933Z,0.70
2022-09-22T14:39:09.932Z,1.48
2022-09-22T14:43:42.551Z,1.38
2022-09-22T14:47:44.823Z,0.70
2022-09-22T14:51:48.006Z,1.15
2022-09-22T14:55:54.124Z,5.18
2022-09-22T15:00:17.517Z,2.95
2022-09-22T15:04:27.736Z,1.40
2022-09-22T15:08:32.282Z,0.88
2022-09-22T15:12:38.616Z,1.45
2022-09-22T15:16:43.466Z,2.45
2022-09-22T15:20:50.149Z,1.45
2022-09-22T15:24:52.823Z,1.23
2022-09-22T15:29:01.733Z,2.60
2022-09-22T15:33:03.919Z,0.63
2022-09-22T15:37:20.550Z,0.75
2022-09-22T15:41:22.771Z,1.45
2022-09-22T15:45:25.415Z,0.73
2022-09-22T15:49:28.475Z,0.65
2022-09-22T15:53:31.844Z,1.88
2022-09-22T15:57:34.452Z,3.10
2022-09-22T16:01:36.827Z,1.05
2022-09-22T16:05:40.919Z,2.00
2022-09-22T16:09:43.115Z,1.17
2022-09-22T16:13:46.518Z,1.70
2022-09-22T16:17:48.649Z,0.82
2022-09-22T16:21:54.293Z,0.60
2022-09-22T16:25:56.366Z,1.42
2022-09-22T16:30:00.082Z,1.27
2022-09-22T16:34:06.509Z,0.88
2022-09-22T16:38:08.689Z,2.45
2022-09-22T16:42:10.756Z,5.50
2022-09-22T16:46:31.445Z,1.25
2022-09-22T16:50:37.073Z,4.43
2022-09-22T16:54:39.725Z,0.60
2022-09-22T16:58:41.699Z,1.90
2022-09-22T17:02:46.015Z,2.13
2022-09-22T17:06:48.729Z,2.78
2022-09-22T17:10:51.632Z,4.05
2022-09-22T17:14:55.137Z,0.85
2022-09-22T17:19:03.256Z,0.95
2022-09-22T17:23:06.861Z,2.40
2022-09-22T17:27:08.978Z,2.43
2022-09-22T17:31:11.628Z,1.40
2022-09-22T17:35:14.252Z,0.60
2022-09-22T17:39:16.394Z,0.82
2022-09-22T17:43:22.814Z,2.40
2022-09-22T17:47:43.420Z,7.78
2022-09-22T17:52:09.295Z,1.38
2022-09-22T17:56:13.137Z,2.20
2022-09-22T18:00:23.449Z,1.80
2022-09-22T18:04:30.170Z,4.43
2022-09-22T18:08:32.806Z,0.93
2022-09-22T18:12:36.591Z,0.82
2022-09-22T18:16:39.366Z,0.70
2022-09-22T18:20:41.910Z,2.38
2022-09-22T18:24:45.432Z,1.48
2022-09-22T18:28:50.697Z,7.10
2022-09-22T18:32:53.031Z,0.82
2022-09-22T18:36:56.634Z,2.25
2022-09-22T18:40:59.252Z,1.37
2022-09-22T18:45:01.492Z,1.63
2022-09-22T18:49:06.080Z,2.05
2022-09-22T18:53:08.525Z,0.77
2022-09-22T18:57:14.010Z,2.15
2022-09-22T19:01:17.328Z,0.90
2022-09-22T19:05:19.616Z,2.28
2022-09-22T19:09:22.241Z,0.90
2022-09-22T19:13:26.317Z,2.58
2022-09-22T19:17:29.020Z,1.83
2022-09-22T19:21:31.718Z,1.85
2022-09-22T19:25:34.495Z,2.30
2022-09-22T19:29:36.746Z,2.55
2022-09-22T19:33:38.951Z,3.55
2022-09-22T19:37:41.382Z,0.57
2022-09-22T19:41:48.198Z,2.97
2022-09-22T19:45:52.357Z,2.40
2022-09-22T19:49:55.149Z,0.73
2022-09-22T19:53:58.184Z,1.35
2022-09-22T19:58:00.282Z,0.80
2022-09-22T20:02:03.811Z,1.90
2022-09-22T20:06:06.462Z,3.45
2022-09-22T20:10:08.787Z,3.10
2022-09-22T20:14:22.479Z,1.35
2022-09-22T20:18:28.394Z,0.50
2022-09-22T20:22:30.568Z,2.67
2022-09-22T20:26:33.843Z,2.53
2022-09-22T20:30:36.116Z,0.68
2022-09-22T20:34:38.661Z,1.13
2022-09-22T20:38:41.984Z,2.20
2022-09-22T20:42:45.710Z,2.10
2022-09-22T20:46:48.206Z,1.23
2022-09-22T20:51:02.899Z,1.05
2022-09-22T20:59:07.852Z,0.93
2022-09-22T21:03:09.986Z,1.20
2022-09-22T21:07:12.299Z,0.90
2022-09-22T21:11:16.192Z,2.35
2022-09-22T21:15:21.614Z,0.95
2022-09-22T21:19:23.830Z,0.85
2022-09-22T21:23:25.865Z,1.48
2022-09-22T21:27:28.240Z,2.95
2022-09-22T21:31:30.427Z,1.33
2022-09-22T21:35:33.799Z,2.28
2022-09-22T21:39:35.830Z,2.35
2022-09-22T21:43:38.570Z,1.13
2022-09-22T21:47:40.769Z,4.07
2022-09-22T21:51:44.448Z,10.20
2022-09-22T21:55:46.822Z,5.53
2022-09-22T21:59:48.875Z,6.28
2022-09-22T22:03:53.318Z,1.90
2022-09-22T22:07:55.590Z,1.52
2022-09-22T22:11:59.060Z,1.88
2022-09-22T22:16:02.065Z,1.15
2022-09-22T22:20:04.599Z,0.90
2022-09-22T22:24:23.201Z,1.23
2022-09-22T22:28:25.395Z,1.00
2022-09-22T22:32:27.996Z,0.70
2022-09-22T22:36:30.197Z,1.10
2022-09-22T22:40:32.288Z,0.95
2022-09-22T22:44:36.239Z,3.08
2022-09-22T22:48:38.912Z,0.70
2022-09-22T22:52:42.331Z,1.13
2022-09-22T22:56:48.869Z,2.15
2022-09-22T23:01:17.094Z,1.75
2022-09-22T23:05:19.363Z,2.03
2022-09-22T23:09:21.908Z,0.80
2022-09-22T23:13:24.028Z,1.58
2022-09-22T23:17:27.805Z,1.33
2022-09-22T23:21:33.165Z,1.00
2022-09-22T23:25:36.314Z,2.45
2022-09-22T23:29:38.948Z,1.55
2022-09-22T23:33:44.187Z,1.45
2022-09-22T23:37:47.191Z,2.00
2022-09-22T23:41:51.371Z,3.05
2022-09-22T23:45:53.799Z,1.52
2022-09-22T23:49:56.475Z,4.63
2022-09-22T23:53:59.202Z,1.98
2022-09-22T23:58:01.250Z,1.17
